Allensville, Kentucky
Current Conditions -  °F | °C
As of 8:52 AM on Thursday 30 Oct 2014 (Local Time) from KCKV Reporting Station
Clear Clear  
Wind Chill: 44°   Ceiling: Unl
Heat Index: 44°   Visibility: 10mi
Dew Point: 40°   Wind: 0mph
Humidity: 85%   Direction: NA
Pressure: 30.18"   Gusts: NA
Location:  36.72°N, 87.07°W
Report Text: KCKV 301352Z AUTO 00000KT 10SM CLR 07/04 A3018 RMK AO2 SLP219 T00670044
Loading
Personal Weather Stations






























Interactive Weather Map
Tropical Storm Tracking
New forecast layout! Learn more

10-Day Weather Forecast

Advertisements
Track Severe Weather on mobile